createdAt,value
2022-12-26T00:00:37.608Z,82.00
2022-12-26T00:03:04.561Z,81.50
2022-12-26T00:05:36.685Z,81.60
2022-12-26T00:08:04.212Z,81.10
2022-12-26T00:10:30.890Z,80.80
2022-12-26T00:13:38.332Z,81.10
2022-12-26T00:15:44.492Z,81.30
2022-12-26T00:18:11.252Z,82.30
2022-12-26T00:20:37.994Z,82.80
2022-12-26T00:23:04.671Z,82.80
2022-12-26T00:25:34.312Z,82.50
2022-12-26T00:28:01.343Z,82.20
2022-12-26T00:30:28.082Z,82.40
2022-12-26T00:32:54.837Z,81.80
2022-12-26T00:35:21.923Z,82.20
2022-12-26T00:37:48.574Z,82.60
2022-12-26T00:40:15.278Z,82.10
2022-12-26T00:42:41.939Z,82.50
2022-12-26T00:45:08.945Z,81.30
2022-12-26T00:47:35.639Z,81.20
2022-12-26T00:50:13.156Z,81.80
2022-12-26T00:52:42.747Z,81.50
2022-12-26T00:55:10.368Z,82.40
2022-12-26T00:57:37.072Z,81.90
2022-12-26T01:00:04.807Z,82.10
2022-12-26T01:02:37.765Z,82.00
2022-12-26T01:05:08.832Z,81.90
2022-12-26T01:08:22.985Z,81.20
2022-12-26T01:10:27.435Z,81.50
2022-12-26T01:12:54.237Z,81.60
2022-12-26T01:15:20.944Z,81.50
2022-12-26T01:17:47.688Z,81.30
2022-12-26T01:20:14.685Z,81.50
2022-12-26T01:22:41.392Z,80.90
2022-12-26T01:25:08.708Z,81.00
2022-12-26T01:27:35.353Z,81.00
2022-12-26T01:30:02.050Z,80.90
2022-12-26T01:32:28.797Z,81.70
2022-12-26T01:34:56.202Z,82.00
2022-12-26T01:37:25.879Z,82.30
2022-12-26T01:39:52.585Z,82.40
2022-12-26T01:42:22.301Z,82.20
2022-12-26T01:45:04.421Z,81.60
2022-12-26T01:47:51.810Z,82.00
2022-12-26T01:50:27.752Z,81.70
2022-12-26T01:52:56.611Z,81.80
2022-12-26T01:55:23.550Z,81.80
2022-12-26T01:58:06.414Z,82.00
2022-12-26T02:00:34.117Z,81.80
2022-12-26T02:03:19.440Z,82.00
2022-12-26T02:05:46.309Z,81.70
2022-12-26T02:08:21.494Z,81.70
2022-12-26T02:10:55.085Z,81.40
2022-12-26T02:13:21.893Z,82.10
2022-12-26T02:15:48.694Z,81.60
2022-12-26T02:18:15.427Z,81.90
2022-12-26T02:20:56.365Z,82.40
2022-12-26T02:24:01.497Z,81.60
2022-12-26T02:26:58.112Z,81.00
2022-12-26T02:29:55.042Z,81.30
2022-12-26T02:32:48.130Z,80.60
2022-12-26T02:35:20.708Z,81.50
2022-12-26T02:38:45.961Z,81.70
2022-12-26T02:41:39.377Z,81.60
2022-12-26T02:45:11.295Z,81.70
2022-12-26T02:47:57.195Z,81.50
2022-12-26T02:51:05.872Z,81.10
2022-12-26T02:54:18.673Z,81.60
2022-12-26T02:57:18.249Z,81.30
2022-12-26T03:00:15.903Z,81.70
2022-12-26T03:03:22.473Z,81.90
2022-12-26T03:06:14.744Z,81.80
2022-12-26T03:09:13.993Z,81.80
2022-12-26T03:12:01.479Z,81.60
2022-12-26T03:14:38.090Z,81.40
2022-12-26T03:17:20.975Z,80.80
2022-12-26T03:20:01.120Z,81.00
2022-12-26T03:22:46.725Z,81.20
2022-12-26T03:25:38.825Z,81.20
2022-12-26T03:28:05.498Z,81.10
2022-12-26T03:30:50.503Z,80.70
2022-12-26T03:33:58.672Z,81.00
2022-12-26T03:37:03.646Z,80.80
2022-12-26T03:40:08.050Z,80.80
2022-12-26T03:43:10.828Z,80.60
2022-12-26T03:46:12.741Z,80.40
2022-12-26T03:49:08.028Z,80.90
2022-12-26T03:52:18.313Z,81.20
2022-12-26T03:55:25.500Z,80.50
2022-12-26T03:58:44.781Z,81.20
2022-12-26T04:01:36.412Z,80.70
2022-12-26T04:04:27.136Z,81.20
2022-12-26T04:07:17.597Z,81.60
2022-12-26T04:10:30.120Z,81.70
2022-12-26T04:13:18.136Z,82.30
2022-12-26T04:16:11.900Z,82.80
2022-12-26T04:19:21.159Z,83.00
2022-12-26T04:22:25.311Z,82.60
2022-12-26T04:25:48.363Z,83.20
2022-12-26T04:28:35.332Z,82.40
2022-12-26T04:31:50.673Z,82.30
2022-12-26T04:34:54.523Z,82.40
2022-12-26T04:37:43.704Z,82.90
2022-12-26T04:40:36.763Z,83.60
2022-12-26T04:43:46.605Z,84.20
2022-12-26T04:46:10.883Z,85.00
2022-12-26T04:49:03.766Z,81.80
2022-12-26T04:51:30.361Z,81.80
2022-12-26T04:53:57.103Z,81.10
2022-12-26T04:56:24.099Z,81.60
2022-12-26T04:58:50.843Z,81.40
2022-12-26T05:01:36.296Z,82.40
2022-12-26T05:04:21.495Z,82.80
2022-12-26T05:07:07.023Z,83.40
2022-12-26T05:09:36.754Z,83.20
2022-12-26T05:12:09.058Z,83.10
2022-12-26T05:14:36.769Z,84.90
2022-12-26T05:17:24.187Z,83.10
2022-12-26T05:20:09.781Z,85.90
2022-12-26T05:22:59.444Z,81.80
2022-12-26T05:25:50.569Z,79.50
2022-12-26T05:28:36.476Z,75.50
2022-12-26T05:31:04.206Z,73.80
2022-12-26T05:33:49.488Z,73.10
2022-12-26T05:36:18.948Z,73.40
2022-12-26T05:38:45.774Z,73.30
2022-12-26T05:41:12.659Z,73.50
2022-12-26T05:43:39.510Z,72.50
2022-12-26T05:46:06.346Z,71.10
2022-12-26T05:48:33.011Z,71.90
2022-12-26T05:51:01.493Z,73.70
2022-12-26T05:53:29.350Z,75.40
2022-12-26T05:56:01.466Z,76.80
2022-12-26T05:58:28.520Z,78.10
2022-12-26T06:01:07.982Z,78.70
2022-12-26T06:03:35.678Z,79.10
2022-12-26T06:06:02.884Z,79.30
2022-12-26T06:08:29.732Z,79.60
2022-12-26T06:10:56.717Z,79.90
2022-12-26T06:13:23.527Z,80.00
2022-12-26T06:15:50.591Z,79.70
2022-12-26T06:18:17.507Z,79.60
2022-12-26T06:20:44.175Z,80.00
2022-12-26T06:23:10.817Z,81.00
2022-12-26T06:25:37.497Z,80.40
2022-12-26T06:28:04.369Z,80.00
2022-12-26T06:30:31.032Z,80.00
2022-12-26T06:32:57.881Z,80.20
2022-12-26T06:35:24.600Z,80.50
2022-12-26T06:37:52.012Z,80.60
2022-12-26T06:40:18.701Z,80.80
2022-12-26T06:42:45.392Z,80.90
2022-12-26T06:45:12.030Z,81.10
2022-12-26T06:47:38.889Z,81.20
2022-12-26T06:50:06.082Z,81.80
2022-12-26T06:52:32.787Z,81.50
2022-12-26T06:54:59.526Z,81.20
2022-12-26T06:57:26.407Z,81.50
2022-12-26T06:59:53.566Z,81.50
2022-12-26T07:02:20.790Z,81.50
2022-12-26T07:04:47.500Z,81.90
2022-12-26T07:07:14.304Z,79.60
2022-12-26T07:09:40.946Z,77.40
2022-12-26T07:12:07.675Z,75.80
2022-12-26T07:14:34.368Z,73.90
2022-12-26T07:17:02.256Z,72.10
2022-12-26T07:19:29.091Z,71.50
2022-12-26T07:21:55.829Z,71.70
2022-12-26T07:24:22.905Z,72.30
2022-12-26T07:26:50.294Z,73.00
2022-12-26T07:29:17.219Z,72.20
2022-12-26T07:31:44.257Z,71.50
2022-12-26T07:34:11.042Z,69.90
2022-12-26T07:36:37.747Z,69.20
2022-12-26T07:39:04.443Z,68.00
2022-12-26T07:41:49.628Z,67.90
2022-12-26T07:44:16.297Z,67.90
2022-12-26T07:46:43.191Z,68.00
2022-12-26T07:49:12.241Z,68.00
2022-12-26T07:51:38.946Z,67.80
2022-12-26T07:54:11.058Z,67.90
2022-12-26T07:56:38.843Z,67.60
2022-12-26T07:59:05.816Z,67.50
2022-12-26T08:01:32.634Z,66.40
2022-12-26T08:03:59.935Z,66.00
2022-12-26T08:06:27.668Z,65.20
2022-12-26T08:08:54.334Z,65.00
2022-12-26T08:11:23.687Z,64.50
2022-12-26T08:13:51.177Z,64.30
2022-12-26T08:16:18.047Z,64.00
2022-12-26T08:18:44.969Z,63.60
2022-12-26T08:21:12.689Z,63.80
2022-12-26T08:23:39.457Z,63.50
2022-12-26T08:26:08.150Z,63.60
2022-12-26T08:28:35.201Z,63.50
2022-12-26T08:31:09.170Z,63.90
2022-12-26T08:33:36.214Z,64.10
2022-12-26T08:36:08.014Z,64.20
2022-12-26T08:38:34.864Z,64.00
2022-12-26T08:41:02.224Z,63.70
2022-12-26T08:43:58.418Z,63.60
2022-12-26T08:46:15.901Z,63.40
2022-12-26T08:48:44.178Z,63.10
2022-12-26T08:51:25.010Z,63.20
2022-12-26T08:53:53.214Z,63.30
2022-12-26T08:56:25.160Z,62.60
2022-12-26T08:58:52.157Z,62.20
2022-12-26T09:01:27.337Z,62.20
2022-12-26T09:03:59.170Z,61.90
2022-12-26T09:06:26.541Z,62.00
2022-12-26T09:08:53.613Z,61.60
2022-12-26T09:11:23.416Z,61.50
2022-12-26T09:13:50.523Z,60.60
2022-12-26T09:16:22.338Z,60.60
2022-12-26T09:18:52.837Z,60.40
2022-12-26T09:21:19.521Z,59.20
2022-12-26T09:23:46.223Z,59.20
2022-12-26T09:26:19.639Z,58.60
2022-12-26T09:28:47.277Z,57.70
2022-12-26T09:31:26.052Z,57.30
2022-12-26T09:33:56.050Z,56.80
2022-12-26T09:36:26.669Z,57.30
2022-12-26T09:38:54.975Z,56.40
2022-12-26T09:41:42.377Z,55.10
2022-12-26T09:44:36.754Z,55.80
2022-12-26T09:47:03.393Z,55.40
2022-12-26T09:49:38.026Z,55.80
2022-12-26T09:52:19.312Z,55.30
2022-12-26T09:54:59.647Z,55.50
2022-12-26T09:57:43.950Z,54.50
2022-12-26T10:00:20.439Z,54.90
2022-12-26T10:02:52.982Z,54.60
2022-12-26T10:05:21.977Z,54.80
2022-12-26T10:08:03.673Z,54.90
2022-12-26T10:10:45.930Z,55.10
2022-12-26T10:13:23.121Z,54.20
2022-12-26T10:15:55.876Z,54.50
2022-12-26T10:18:54.461Z,54.30
2022-12-26T10:21:42.516Z,53.60
2022-12-26T10:24:16.721Z,54.10
2022-12-26T10:26:56.943Z,54.00
2022-12-26T10:29:26.739Z,53.70
2022-12-26T10:32:08.526Z,53.30
2022-12-26T10:34:43.915Z,53.90
2022-12-26T10:37:14.029Z,52.50
2022-12-26T10:39:51.830Z,52.50
2022-12-26T10:42:39.643Z,52.60
2022-12-26T10:45:20.932Z,52.40
2022-12-26T10:47:50.554Z,52.10
2022-12-26T10:50:25.433Z,51.40
2022-12-26T10:52:55.050Z,51.40
2022-12-26T10:55:31.954Z,51.10
2022-12-26T10:58:14.477Z,52.30
2022-12-26T11:00:41.181Z,53.00
2022-12-26T11:03:17.451Z,52.60
2022-12-26T11:06:07.382Z,53.20
2022-12-26T11:08:49.386Z,54.00
2022-12-26T11:11:46.391Z,54.30
2022-12-26T11:14:33.836Z,55.30
2022-12-26T11:17:08.927Z,55.50
2022-12-26T11:19:39.671Z,56.00
2022-12-26T11:22:26.135Z,55.20
2022-12-26T11:25:27.499Z,55.90
2022-12-26T11:27:57.393Z,56.40
2022-12-26T11:30:31.537Z,57.40
2022-12-26T11:33:14.073Z,57.00
2022-12-26T11:35:54.950Z,57.10
2022-12-26T11:38:39.062Z,57.50
2022-12-26T11:41:39.543Z,59.10
2022-12-26T11:44:13.194Z,60.20
2022-12-26T11:47:00.270Z,61.70
2022-12-26T11:49:47.108Z,63.70
2022-12-26T11:52:32.576Z,66.20
2022-12-26T11:54:59.792Z,69.20
2022-12-26T11:57:31.926Z,70.90
2022-12-26T12:00:17.385Z,73.00
2022-12-26T12:02:44.314Z,75.20
2022-12-26T12:05:28.536Z,77.40
2022-12-26T12:08:25.467Z,78.40
2022-12-26T12:11:16.177Z,80.50
2022-12-26T12:14:12.411Z,81.90
2022-12-26T12:17:21.864Z,82.40
2022-12-26T12:20:25.152Z,83.40
2022-12-26T12:22:51.790Z,84.40
2022-12-26T12:25:30.361Z,84.60
2022-12-26T12:28:15.699Z,85.10
2022-12-26T12:31:04.460Z,85.10
2022-12-26T12:33:55.292Z,85.50
2022-12-26T12:36:34.176Z,86.10
2022-12-26T12:39:10.692Z,86.50
2022-12-26T12:41:45.228Z,86.60
2022-12-26T12:44:56.541Z,87.00
2022-12-26T12:47:48.076Z,87.40
2022-12-26T12:50:29.407Z,87.40
2022-12-26T12:53:05.399Z,87.30
2022-12-26T12:55:51.412Z,87.70
2022-12-26T12:58:27.522Z,87.90
2022-12-26T13:01:03.210Z,88.20
2022-12-26T13:03:40.216Z,88.30
2022-12-26T13:06:13.735Z,88.40
2022-12-26T13:08:45.742Z,88.10
2022-12-26T13:11:28.971Z,88.00
2022-12-26T13:14:11.016Z,88.10
2022-12-26T13:16:43.499Z,88.10
2022-12-26T13:19:17.988Z,88.30
2022-12-26T13:21:48.016Z,88.50
2022-12-26T13:24:29.019Z,88.40
2022-12-26T13:27:06.812Z,88.40
2022-12-26T13:29:45.092Z,88.50
2022-12-26T13:32:26.543Z,88.60
2022-12-26T13:34:56.948Z,88.50
2022-12-26T13:37:55.239Z,88.70
2022-12-26T13:40:26.063Z,88.50
2022-12-26T13:43:21.398Z,88.30
2022-12-26T13:45:57.423Z,88.20
2022-12-26T13:48:27.288Z,88.70
2022-12-26T13:50:56.988Z,89.10
2022-12-26T13:53:26.663Z,89.50
2022-12-26T13:55:58.008Z,89.50
2022-12-26T13:58:36.322Z,89.60
2022-12-26T14:01:07.752Z,89.60
2022-12-26T14:03:52.432Z,89.70
2022-12-26T14:06:31.135Z,89.60
2022-12-26T14:09:31.492Z,89.70
2022-12-26T14:12:12.846Z,89.90
2022-12-26T14:15:01.858Z,90.00
2022-12-26T14:17:55.361Z,89.80
2022-12-26T14:20:49.907Z,90.00
2022-12-26T14:23:45.556Z,89.70
2022-12-26T14:26:48.682Z,89.30
2022-12-26T14:29:15.239Z,89.60
2022-12-26T14:32:01.995Z,89.50
2022-12-26T14:34:56.196Z,88.90
2022-12-26T14:37:40.795Z,88.30
2022-12-26T14:40:28.993Z,88.20
2022-12-26T14:43:10.742Z,88.70
2022-12-26T14:45:37.531Z,89.00
2022-12-26T14:48:24.200Z,88.90
2022-12-26T14:50:56.279Z,88.80
2022-12-26T14:53:28.813Z,88.70
2022-12-26T14:56:07.638Z,88.70
2022-12-26T14:58:44.837Z,88.40
2022-12-26T15:01:20.507Z,88.10
2022-12-26T15:04:08.905Z,86.90
2022-12-26T15:06:53.710Z,86.80
2022-12-26T15:09:55.814Z,85.90
2022-12-26T15:13:09.825Z,86.00
2022-12-26T15:16:03.125Z,85.80
2022-12-26T15:18:51.642Z,84.70
2022-12-26T15:21:30.821Z,84.90
2022-12-26T15:24:52.450Z,84.20
2022-12-26T15:28:03.689Z,84.40
2022-12-26T15:30:42.979Z,85.00
2022-12-26T15:33:34.076Z,85.10
2022-12-26T15:36:25.777Z,85.20
2022-12-26T15:39:04.904Z,85.60
2022-12-26T15:41:47.941Z,86.20
2022-12-26T15:44:34.232Z,86.70
2022-12-26T15:47:23.624Z,86.70
2022-12-26T15:50:28.103Z,86.60
2022-12-26T15:53:07.584Z,86.60
2022-12-26T15:56:03.732Z,86.50
2022-12-26T15:59:09.471Z,87.00
2022-12-26T16:01:41.742Z,86.80
2022-12-26T16:04:31.162Z,86.30
2022-12-26T16:07:17.016Z,86.70
2022-12-26T16:09:51.736Z,86.40
2022-12-26T16:12:22.986Z,85.60
2022-12-26T16:14:50.750Z,86.10
2022-12-26T16:17:22.086Z,86.50
2022-12-26T16:19:50.919Z,86.50
2022-12-26T16:22:49.517Z,87.00
2022-12-26T16:25:26.062Z,87.60
2022-12-26T16:27:58.517Z,88.20
2022-12-26T16:30:28.733Z,88.50
2022-12-26T16:32:55.850Z,88.40
2022-12-26T16:35:26.512Z,88.50
2022-12-26T16:37:55.305Z,88.00
2022-12-26T16:40:33.364Z,87.90
2022-12-26T16:43:23.874Z,87.00
2022-12-26T16:45:54.059Z,86.70
2022-12-26T16:48:23.239Z,86.80
2022-12-26T16:51:05.990Z,87.00
2022-12-26T16:53:35.703Z,86.60
2022-12-26T16:56:21.184Z,85.70
2022-12-26T16:59:01.227Z,85.00
2022-12-26T17:01:32.998Z,84.60
2022-12-26T17:04:04.355Z,84.80
2022-12-26T17:06:38.610Z,84.10
2022-12-26T17:09:17.219Z,83.90
2022-12-26T17:12:06.704Z,83.80
2022-12-26T17:14:36.004Z,83.40
2022-12-26T17:17:33.771Z,83.20
2022-12-26T17:20:23.122Z,82.80
2022-12-26T17:22:54.768Z,82.00
2022-12-26T17:25:27.718Z,80.50
2022-12-26T17:28:09.807Z,81.30
2022-12-26T17:30:37.536Z,82.00
2022-12-26T17:33:25.671Z,82.90
2022-12-26T17:38:54.200Z,82.60
2022-12-26T17:41:20.935Z,82.00
2022-12-26T17:43:48.401Z,82.00
2022-12-26T17:46:17.167Z,81.50
2022-12-26T17:48:44.619Z,81.50
2022-12-26T17:51:16.289Z,81.10
2022-12-26T17:53:47.664Z,80.50
2022-12-26T17:56:19.911Z,80.20
2022-12-26T17:58:47.602Z,80.60
2022-12-26T18:01:20.710Z,79.70
2022-12-26T18:03:48.446Z,79.60
2022-12-26T18:06:16.654Z,79.70
2022-12-26T18:08:44.398Z,80.00
2022-12-26T18:11:13.038Z,79.80
2022-12-26T18:13:40.003Z,79.70
2022-12-26T18:16:07.668Z,79.00
2022-12-26T18:18:39.660Z,78.30
2022-12-26T18:21:09.953Z,77.10
2022-12-26T18:23:37.425Z,77.40
2022-12-26T18:26:12.866Z,77.90
2022-12-26T18:28:39.643Z,77.30
2022-12-26T18:31:06.320Z,77.20
2022-12-26T18:33:33.072Z,77.30
2022-12-26T18:36:04.347Z,77.10
2022-12-26T18:38:33.986Z,76.90
2022-12-26T18:41:02.319Z,76.60
2022-12-26T18:43:28.994Z,76.80
2022-12-26T18:45:55.887Z,77.10
2022-12-26T18:48:22.667Z,75.80
2022-12-26T18:50:49.312Z,75.80
2022-12-26T18:53:16.266Z,75.60
2022-12-26T18:55:43.029Z,76.00
2022-12-26T18:58:10.374Z,75.60
2022-12-26T19:00:37.777Z,75.80
2022-12-26T19:03:04.571Z,76.00
2022-12-26T19:05:34.226Z,75.90
2022-12-26T19:08:02.009Z,75.60
2022-12-26T19:10:32.609Z,76.00
2022-12-26T19:13:05.809Z,75.20
2022-12-26T19:15:34.817Z,75.10
2022-12-26T19:18:02.283Z,74.60
2022-12-26T19:20:29.123Z,74.60
2022-12-26T19:22:56.120Z,74.50
2022-12-26T19:25:24.546Z,74.80
2022-12-26T19:27:51.435Z,75.10
2022-12-26T19:30:18.813Z,74.40
2022-12-26T19:32:46.021Z,74.20
2022-12-26T19:35:13.927Z,74.50
2022-12-26T19:37:41.194Z,74.50
2022-12-26T19:40:09.659Z,73.90
2022-12-26T19:42:37.369Z,74.30
2022-12-26T19:45:09.240Z,74.70
2022-12-26T19:47:36.473Z,74.40
2022-12-26T19:50:05.392Z,74.50
2022-12-26T19:52:32.135Z,73.90
2022-12-26T19:54:58.781Z,74.10
2022-12-26T19:57:25.530Z,74.10
2022-12-26T19:59:52.190Z,74.90
2022-12-26T20:02:19.039Z,75.70
2022-12-26T20:04:45.963Z,75.80
2022-12-26T20:07:12.606Z,76.30
2022-12-26T20:09:39.362Z,75.80
2022-12-26T20:12:06.261Z,76.40
2022-12-26T20:14:32.929Z,76.70
2022-12-26T20:17:08.806Z,76.20
2022-12-26T20:19:36.761Z,76.20
2022-12-26T20:22:04.724Z,75.90
2022-12-26T20:24:31.486Z,76.00
2022-12-26T20:26:58.195Z,76.10
2022-12-26T20:29:24.978Z,76.30
2022-12-26T20:31:54.981Z,77.00
2022-12-26T20:34:21.879Z,76.60
2022-12-26T20:36:48.577Z,76.30
2022-12-26T20:39:18.431Z,76.70
2022-12-26T20:41:45.882Z,76.50
2022-12-26T20:44:14.108Z,76.00
2022-12-26T20:46:42.218Z,76.00
2022-12-26T20:49:09.841Z,76.10
2022-12-26T20:51:39.390Z,75.90
2022-12-26T20:54:07.548Z,75.50
2022-12-26T20:56:35.725Z,75.10
2022-12-26T20:59:03.261Z,75.60
2022-12-26T21:01:30.620Z,75.10
2022-12-26T21:03:58.162Z,75.00
2022-12-26T21:06:30.365Z,74.70
2022-12-26T21:08:57.901Z,73.80
2022-12-26T21:11:33.770Z,73.10
2022-12-26T21:14:11.046Z,73.70
2022-12-26T21:16:41.049Z,73.40
2022-12-26T21:19:14.687Z,73.00
2022-12-26T21:21:44.314Z,72.60
2022-12-26T21:24:17.046Z,72.80
2022-12-26T21:26:44.489Z,73.70
2022-12-26T21:29:14.246Z,74.40
2022-12-26T21:31:41.485Z,76.00
2022-12-26T21:34:08.768Z,77.40
2022-12-26T21:36:35.833Z,79.00
2022-12-26T21:39:07.341Z,80.20
2022-12-26T21:41:34.032Z,82.60
2022-12-26T21:44:01.153Z,83.70
2022-12-26T21:46:28.053Z,83.00
2022-12-26T21:48:55.183Z,84.30
2022-12-26T21:51:26.730Z,83.80
2022-12-26T21:54:13.577Z,83.00
2022-12-26T21:56:40.236Z,83.40
2022-12-26T21:59:25.316Z,84.00
2022-12-26T22:01:52.012Z,83.60
2022-12-26T22:04:18.737Z,84.20
2022-12-26T22:06:45.540Z,83.40
2022-12-26T22:09:12.648Z,83.70
2022-12-26T22:11:57.862Z,82.90
2022-12-26T22:14:24.701Z,83.30
2022-12-26T22:16:52.819Z,84.30
2022-12-26T22:19:19.469Z,84.80
2022-12-26T22:21:46.296Z,85.60
2022-12-26T22:24:13.060Z,85.70
2022-12-26T22:26:39.776Z,85.90
2022-12-26T22:29:06.440Z,86.60
2022-12-26T22:31:35.654Z,87.40
2022-12-26T22:34:09.512Z,87.30
2022-12-26T22:36:36.220Z,87.20
2022-12-26T22:39:03.853Z,87.40
2022-12-26T22:41:30.830Z,87.30
2022-12-26T22:43:57.484Z,87.20
2022-12-26T22:46:25.069Z,87.20
2022-12-26T22:48:52.065Z,87.40
2022-12-26T22:51:23.929Z,87.90
2022-12-26T22:53:54.358Z,87.90
2022-12-26T22:56:21.205Z,88.50
2022-12-26T22:58:47.924Z,88.70
2022-12-26T23:01:17.224Z,88.40
2022-12-26T23:03:44.519Z,88.60
2022-12-26T23:06:26.142Z,88.80
2022-12-26T23:08:56.558Z,89.10
2022-12-26T23:11:30.337Z,89.70
2022-12-26T23:14:01.846Z,90.20
2022-12-26T23:16:43.666Z,90.30
2022-12-26T23:19:52.562Z,90.40
2022-12-26T23:22:19.500Z,90.50
2022-12-26T23:24:46.211Z,90.80
2022-12-26T23:27:31.569Z,91.00
2022-12-26T23:30:17.114Z,91.00
2022-12-26T23:32:45.553Z,91.10
2022-12-26T23:35:12.689Z,91.00
2022-12-26T23:37:41.290Z,90.90
2022-12-26T23:40:10.411Z,90.90
2022-12-26T23:42:37.676Z,90.80
2022-12-26T23:45:05.074Z,90.60
2022-12-26T23:47:31.965Z,90.60
2022-12-26T23:49:58.635Z,90.60
2022-12-26T23:52:30.060Z,90.50
2022-12-26T23:54:57.484Z,89.90
2022-12-26T23:57:24.146Z,89.40
2022-12-26T23:59:50.864Z,89.50
